createdAt,value
2023-02-12T00:02:42.987Z,102164.98
2023-02-12T00:06:15.747Z,102170.41
2023-02-12T00:09:43.533Z,102169.87
2023-02-12T00:13:11.037Z,102175.98
2023-02-12T00:16:38.603Z,102183.20
2023-02-12T00:20:07.426Z,102184.24
2023-02-12T00:23:35.168Z,102186.06
2023-02-12T00:27:02.412Z,102195.64
2023-02-12T00:30:30.287Z,102208.23
2023-02-12T00:33:58.222Z,102211.20
2023-02-12T00:37:27.825Z,102219.35
2023-02-12T00:40:55.441Z,102223.80
2023-02-12T00:44:25.795Z,102225.39
2023-02-12T00:47:53.117Z,102227.58
2023-02-12T00:51:20.386Z,102232.20
2023-02-12T00:54:47.828Z,102244.25
2023-02-12T00:58:18.875Z,102248.49
2023-02-12T01:01:46.300Z,102246.23
2023-02-12T01:05:13.805Z,102251.77
2023-02-12T01:08:44.710Z,102258.98
2023-02-12T01:12:12.448Z,102265.06
2023-02-12T01:15:39.712Z,102278.58
2023-02-12T01:19:07.198Z,102280.58
2023-02-12T01:22:34.964Z,102287.92
2023-02-12T01:26:05.128Z,102284.52
2023-02-12T01:29:32.235Z,102287.77
2023-02-12T01:33:01.470Z,102299.67
2023-02-12T01:36:29.877Z,102304.44
2023-02-12T01:39:57.256Z,102307.13
2023-02-12T01:43:24.417Z,102313.01
2023-02-12T01:46:58.003Z,102305.55
2023-02-12T01:50:25.440Z,102310.45
2023-02-12T01:53:57.949Z,102311.42
2023-02-12T01:57:26.046Z,102309.20
2023-02-12T02:00:53.653Z,102311.64
2023-02-12T02:04:24.879Z,102318.50
2023-02-12T02:07:52.119Z,102320.58
2023-02-12T02:11:37.135Z,102320.30
2023-02-12T02:15:09.066Z,102321.46
2023-02-12T02:18:42.440Z,102323.62
2023-02-12T02:22:25.679Z,102320.40
2023-02-12T02:26:12.142Z,102321.11
2023-02-12T02:30:02.040Z,102327.11
2023-02-12T02:33:41.480Z,102327.68
2023-02-12T02:37:19.645Z,102337.09
2023-02-12T02:40:54.615Z,102335.42
2023-02-12T02:44:50.196Z,102344.00
2023-02-12T02:48:24.482Z,102345.71
2023-02-12T02:52:05.019Z,102355.05
2023-02-12T02:55:39.038Z,102358.10
2023-02-12T02:59:11.142Z,102360.34
2023-02-12T03:02:42.804Z,102361.18
2023-02-12T03:06:17.153Z,102362.75
2023-02-12T03:09:48.299Z,102365.15
2023-02-12T03:13:19.721Z,102364.20
2023-02-12T03:16:55.517Z,102368.45
2023-02-12T03:20:25.996Z,102377.59
2023-02-12T03:23:59.366Z,102380.15
2023-02-12T03:27:32.828Z,102389.34
2023-02-12T03:31:12.133Z,102396.17
2023-02-12T03:34:56.282Z,102399.13
2023-02-12T03:38:32.170Z,102408.17
2023-02-12T03:42:07.011Z,102411.65
2023-02-12T03:45:43.920Z,102415.33
2023-02-12T03:49:28.158Z,102422.75
2023-02-12T03:52:55.611Z,102425.48
2023-02-12T03:56:27.009Z,102428.27
2023-02-12T03:59:54.634Z,102434.26
2023-02-12T04:03:22.503Z,102440.02
2023-02-12T04:06:51.665Z,102440.08
2023-02-12T04:10:20.868Z,102441.14
2023-02-12T04:14:00.890Z,102444.50
2023-02-12T04:17:38.491Z,102447.17
2023-02-12T04:21:13.791Z,102450.02
2023-02-12T04:24:51.473Z,102450.38
2023-02-12T04:28:29.616Z,102452.63
2023-02-12T04:32:01.780Z,102454.55
2023-02-12T04:35:33.895Z,102458.54
2023-02-12T04:39:04.527Z,102460.95
2023-02-12T04:42:42.043Z,102454.73
2023-02-12T04:46:10.678Z,102456.31
2023-02-12T04:49:40.252Z,102462.27
2023-02-12T04:53:27.815Z,102469.11
2023-02-12T04:56:55.176Z,102463.94
2023-02-12T05:00:23.446Z,102467.77
2023-02-12T05:03:54.404Z,102470.89
2023-02-12T05:07:21.858Z,102476.98
2023-02-12T05:10:49.112Z,102481.61
2023-02-12T05:14:16.872Z,102488.29
2023-02-12T05:17:45.870Z,102489.72
2023-02-12T05:21:13.658Z,102491.27
2023-02-12T05:24:41.428Z,102494.00
2023-02-12T05:28:08.971Z,102501.90
2023-02-12T05:31:37.200Z,102507.41
2023-02-12T05:35:04.610Z,102516.73
2023-02-12T05:38:31.822Z,102519.41
2023-02-12T05:41:59.346Z,102522.84
2023-02-12T05:45:28.157Z,102532.90
2023-02-12T05:48:56.034Z,102535.52
2023-02-12T05:52:26.309Z,102541.64
2023-02-12T05:55:53.847Z,102546.39
2023-02-12T05:59:24.041Z,102557.41
2023-02-12T06:03:11.613Z,102566.39
2023-02-12T06:06:42.285Z,102572.27
2023-02-12T06:10:12.109Z,102575.70
2023-02-12T06:13:39.511Z,102576.64
2023-02-12T06:17:06.718Z,102579.30
2023-02-12T06:20:34.184Z,102586.15
2023-02-12T06:24:01.376Z,102590.63
2023-02-12T06:27:28.822Z,102595.81
2023-02-12T06:30:56.052Z,102600.07
2023-02-12T06:34:24.039Z,102604.78
2023-02-12T06:37:51.319Z,102610.59
2023-02-12T06:41:21.360Z,102618.64
2023-02-12T06:44:51.306Z,102623.27
2023-02-12T06:48:19.921Z,102627.48
2023-02-12T06:51:47.119Z,102631.15
2023-02-12T06:55:14.391Z,102637.35
2023-02-12T06:58:43.373Z,102643.86
2023-02-12T07:02:12.527Z,102648.67
2023-02-12T07:05:42.043Z,102645.83
2023-02-12T07:09:16.922Z,102647.88
2023-02-12T07:12:44.348Z,102648.63
2023-02-12T07:16:14.010Z,102648.91
2023-02-12T07:19:41.276Z,102651.92
2023-02-12T07:23:29.380Z,102656.29
2023-02-12T07:26:56.682Z,102657.66
2023-02-12T07:30:27.169Z,102657.48
2023-02-12T07:33:57.072Z,102662.56
2023-02-12T07:37:24.387Z,102662.86
2023-02-12T07:40:51.848Z,102665.25
2023-02-12T07:44:19.440Z,102671.02
2023-02-12T07:47:46.883Z,102683.45
2023-02-12T07:51:16.109Z,102682.55
2023-02-12T07:54:43.387Z,102685.16
2023-02-12T07:58:21.787Z,102691.49
2023-02-12T08:01:51.394Z,102695.91
2023-02-12T08:05:18.616Z,102698.23
2023-02-12T08:08:46.112Z,102693.47
2023-02-12T08:12:13.411Z,102693.13
2023-02-12T08:15:40.685Z,102695.16
2023-02-12T08:19:17.900Z,102692.60
2023-02-12T08:22:46.287Z,102696.88
2023-02-12T08:26:16.209Z,102701.03
2023-02-12T08:29:43.499Z,102704.30
2023-02-12T08:33:10.867Z,102705.23
2023-02-12T08:36:41.375Z,102707.04
2023-02-12T08:40:10.776Z,102701.13
2023-02-12T08:43:38.675Z,102698.13
2023-02-12T08:47:16.053Z,102701.14
2023-02-12T08:50:43.210Z,102705.38
2023-02-12T08:54:14.384Z,102711.06
2023-02-12T08:57:43.275Z,102714.65
2023-02-12T09:01:16.227Z,102714.48
2023-02-12T09:04:46.256Z,102706.08
2023-02-12T09:08:16.705Z,102710.99
2023-02-12T09:11:45.164Z,102711.73
2023-02-12T09:15:13.117Z,102718.55
2023-02-12T09:18:41.317Z,102731.07
2023-02-12T09:22:08.595Z,102731.61
2023-02-12T09:25:36.838Z,102738.30
2023-02-12T09:29:05.139Z,102746.55
2023-02-12T09:32:32.513Z,102746.46
2023-02-12T09:36:04.552Z,102748.39
2023-02-12T09:39:32.453Z,102746.07
2023-02-12T09:43:13.408Z,102752.48
2023-02-12T09:46:48.958Z,102751.54
2023-02-12T09:50:34.772Z,102747.18
2023-02-12T09:54:07.473Z,102743.55
2023-02-12T09:57:37.347Z,102734.77
2023-02-12T10:01:12.156Z,102734.33
2023-02-12T10:04:58.711Z,102736.22
2023-02-12T10:08:41.175Z,102737.48
2023-02-12T10:12:20.180Z,102736.66
2023-02-12T10:15:55.685Z,102733.88
2023-02-12T10:19:36.964Z,102730.07
2023-02-12T10:23:17.676Z,102731.45
2023-02-12T10:26:49.181Z,102728.85
2023-02-12T10:30:24.119Z,102736.83
2023-02-12T10:33:54.278Z,102732.23
2023-02-12T10:37:33.621Z,102731.11
2023-02-12T10:41:02.062Z,102735.02
2023-02-12T10:44:29.857Z,102733.09
2023-02-12T10:48:09.011Z,102733.81
2023-02-12T10:51:54.962Z,102738.67
2023-02-12T10:55:32.317Z,102729.95
2023-02-12T10:59:01.577Z,102729.31
2023-02-12T11:02:33.410Z,102728.75
2023-02-12T11:06:17.146Z,102730.86
2023-02-12T11:09:49.537Z,102734.55
2023-02-12T11:13:26.627Z,102737.71
2023-02-12T11:16:58.541Z,102737.00
2023-02-12T11:20:30.195Z,102739.12
2023-02-12T11:23:58.098Z,102736.32
2023-02-12T11:27:28.752Z,102731.45
2023-02-12T11:30:58.711Z,102724.91
2023-02-12T11:34:26.692Z,102725.55
2023-02-12T11:37:55.552Z,102726.15
2023-02-12T11:41:37.333Z,102724.70
2023-02-12T11:45:08.567Z,102720.37
2023-02-12T11:48:41.631Z,102716.53
2023-02-12T11:52:18.860Z,102717.50
2023-02-12T11:55:57.507Z,102718.32
2023-02-12T11:59:34.205Z,102718.71
2023-02-12T12:03:08.144Z,102716.46
2023-02-12T12:06:42.633Z,102715.02
2023-02-12T12:10:20.660Z,102709.04
2023-02-12T12:13:52.326Z,102706.70
2023-02-12T12:17:37.642Z,102708.27
2023-02-12T12:21:12.930Z,102708.22
2023-02-12T12:24:49.541Z,102708.28
2023-02-12T12:28:31.802Z,102702.06
2023-02-12T12:32:02.310Z,102699.66
2023-02-12T12:35:41.794Z,102693.34
2023-02-12T12:39:23.302Z,102684.17
2023-02-12T12:43:15.297Z,102682.56
2023-02-12T12:46:56.872Z,102677.57
2023-02-12T12:50:44.380Z,102677.09
2023-02-12T12:54:41.755Z,102679.41
2023-02-12T12:58:20.746Z,102675.21
2023-02-12T13:02:09.278Z,102671.41
2023-02-12T13:06:17.587Z,102670.53
2023-02-12T13:09:59.713Z,102671.85
2023-02-12T13:13:34.470Z,102662.59
2023-02-12T13:17:19.805Z,102657.29
2023-02-12T13:20:53.754Z,102655.65
2023-02-12T13:24:31.925Z,102655.70
2023-02-12T13:28:01.142Z,102651.88
2023-02-12T13:31:47.173Z,102649.42
2023-02-12T13:35:21.024Z,102652.95
2023-02-12T13:38:57.473Z,102651.13
2023-02-12T13:42:38.491Z,102646.23
2023-02-12T13:46:16.351Z,102648.31
2023-02-12T13:50:01.343Z,102653.02
2023-02-12T13:53:40.906Z,102651.79
2023-02-12T13:57:14.926Z,102655.12
2023-02-12T14:01:07.792Z,102653.88
2023-02-12T14:04:38.061Z,102655.52
2023-02-12T14:08:35.960Z,102656.80
2023-02-12T14:12:16.534Z,102657.77
2023-02-12T14:16:22.786Z,102658.91
2023-02-12T14:20:08.875Z,102662.48
2023-02-12T14:23:36.402Z,102661.33
2023-02-12T14:27:04.224Z,102662.91
2023-02-12T14:30:39.191Z,102667.29
2023-02-12T14:34:50.467Z,102675.23
2023-02-12T14:39:02.929Z,102676.82
2023-02-12T14:42:58.033Z,102670.75
2023-02-12T14:46:48.971Z,102672.14
2023-02-12T14:50:24.160Z,102673.77
2023-02-12T14:53:55.667Z,102675.05
2023-02-12T14:57:28.804Z,102680.05
2023-02-12T15:01:02.407Z,102675.36
2023-02-12T15:04:34.942Z,102674.98
2023-02-12T15:08:08.241Z,102682.50
2023-02-12T15:11:48.215Z,102687.30
2023-02-12T15:15:27.045Z,102677.91
2023-02-12T15:19:01.009Z,102678.56
2023-02-12T15:22:32.136Z,102679.74
2023-02-12T15:26:00.371Z,102679.38
2023-02-12T15:29:33.036Z,102679.80
2023-02-12T15:33:04.502Z,102673.98
2023-02-12T15:36:38.108Z,102671.82
2023-02-12T15:40:08.797Z,102671.52
2023-02-12T15:43:43.383Z,102674.06
2023-02-12T15:47:17.188Z,102668.89
2023-02-12T15:50:58.274Z,102669.31
2023-02-12T15:54:26.312Z,102670.47
2023-02-12T15:57:55.053Z,102663.30
2023-02-12T16:01:28.023Z,102667.36
2023-02-12T16:05:18.366Z,102661.04
2023-02-12T16:08:47.966Z,102657.24
2023-02-12T16:12:19.211Z,102659.11
2023-02-12T16:15:46.822Z,102659.49
2023-02-12T16:19:22.781Z,102659.63
2023-02-12T16:22:53.548Z,102666.77
2023-02-12T16:26:30.517Z,102670.88
2023-02-12T16:30:00.539Z,102675.95
2023-02-12T16:33:45.515Z,102673.65
2023-02-12T16:41:28.032Z,102690.29
2023-02-12T16:44:59.075Z,102692.20
2023-02-12T16:48:43.854Z,102687.35
2023-02-12T16:52:35.046Z,102688.61
2023-02-12T16:56:03.897Z,102684.97
2023-02-12T16:59:31.507Z,102689.69
2023-02-12T17:02:59.470Z,102692.04
2023-02-12T17:06:29.161Z,102695.48
2023-02-12T17:09:59.071Z,102694.56
2023-02-12T17:13:26.254Z,102694.80
2023-02-12T17:16:53.542Z,102698.08
2023-02-12T17:20:24.254Z,102697.23
2023-02-12T17:23:53.900Z,102698.33
2023-02-12T17:27:32.324Z,102695.65
2023-02-12T17:31:02.680Z,102698.43
2023-02-12T17:34:34.126Z,102704.51
2023-02-12T17:38:17.344Z,102707.49
2023-02-12T17:41:45.316Z,102708.42
2023-02-12T17:45:14.975Z,102707.84
2023-02-12T17:48:45.064Z,102708.52
2023-02-12T17:52:15.282Z,102706.69
2023-02-12T17:55:52.549Z,102706.23
2023-02-12T17:59:20.360Z,102705.48
2023-02-12T18:02:50.895Z,102704.86
2023-02-12T18:06:24.520Z,102705.35
2023-02-12T18:09:51.751Z,102706.23
2023-02-12T18:13:22.084Z,102706.70
2023-02-12T18:16:52.249Z,102702.70
2023-02-12T18:20:29.629Z,102699.09
2023-02-12T18:23:59.814Z,102699.38
2023-02-12T18:27:27.160Z,102695.52
2023-02-12T18:31:05.930Z,102697.79
2023-02-12T18:34:33.343Z,102696.89
2023-02-12T18:38:00.983Z,102697.84
2023-02-12T18:41:30.307Z,102701.90
2023-02-12T18:44:57.833Z,102696.40
2023-02-12T18:48:27.253Z,102698.45
2023-02-12T18:51:54.726Z,102699.48
2023-02-12T18:55:21.883Z,102692.52
2023-02-12T18:58:49.196Z,102695.24
2023-02-12T19:02:16.923Z,102696.12
2023-02-12T19:05:44.432Z,102696.84
2023-02-12T19:09:13.472Z,102697.13
2023-02-12T19:12:40.678Z,102705.91
2023-02-12T19:16:13.738Z,102705.01
2023-02-12T19:19:41.019Z,102704.48
2023-02-12T19:23:08.252Z,102701.94
2023-02-12T19:26:46.496Z,102698.13
2023-02-12T19:30:14.997Z,102694.45
2023-02-12T19:33:42.249Z,102699.73
2023-02-12T19:37:11.688Z,102698.27
2023-02-12T19:40:47.546Z,102698.75
2023-02-12T19:44:18.857Z,102697.48
2023-02-12T19:47:46.372Z,102696.62
2023-02-12T19:51:18.351Z,102694.89
2023-02-12T19:54:48.385Z,102698.73
2023-02-12T19:58:15.713Z,102697.30
2023-02-12T20:01:46.283Z,102694.31
2023-02-12T20:05:13.689Z,102689.85
2023-02-12T20:08:41.947Z,102691.36
2023-02-12T20:12:09.795Z,102690.72
2023-02-12T20:15:38.008Z,102690.67
2023-02-12T20:19:07.920Z,102689.41
2023-02-12T20:22:36.917Z,102697.36
2023-02-12T20:26:09.883Z,102694.63
2023-02-12T20:29:35.608Z,102694.84
2023-02-12T20:33:02.737Z,102693.66
2023-02-12T20:36:34.030Z,102695.65
2023-02-12T20:40:01.279Z,102689.14
2023-02-12T20:43:28.652Z,102689.28
2023-02-12T20:46:57.361Z,102692.55
2023-02-12T20:50:34.004Z,102686.70
2023-02-12T20:54:03.486Z,102688.43
2023-02-12T20:57:34.887Z,102687.54
2023-02-12T21:01:08.202Z,102685.29
2023-02-12T21:04:35.818Z,102684.00
2023-02-12T21:08:03.161Z,102686.16
2023-02-12T21:11:30.990Z,102686.46
2023-02-12T21:14:58.299Z,102685.98
2023-02-12T21:18:27.096Z,102682.86
2023-02-12T21:21:54.564Z,102688.82
2023-02-12T21:25:21.975Z,102691.09
2023-02-12T21:28:49.539Z,102685.95
2023-02-12T21:32:16.856Z,102681.61
2023-02-12T21:35:44.428Z,102682.40
2023-02-12T21:39:14.791Z,102684.55
2023-02-12T21:42:41.970Z,102683.64
2023-02-12T21:46:15.429Z,102681.14
2023-02-12T21:49:43.256Z,102681.62
2023-02-12T21:53:10.594Z,102681.56
2023-02-12T21:56:42.506Z,102686.35
2023-02-12T22:00:12.379Z,102686.85
2023-02-12T22:03:44.081Z,102687.77
2023-02-12T22:07:11.474Z,102684.69
2023-02-12T22:10:38.863Z,102686.23
2023-02-12T22:14:07.388Z,102680.92
2023-02-12T22:17:35.781Z,102682.98
2023-02-12T22:21:05.960Z,102679.27
2023-02-12T22:24:37.353Z,102680.36
2023-02-12T22:28:24.942Z,102682.91
2023-02-12T22:31:52.349Z,102683.31
2023-02-12T22:35:20.256Z,102676.53
2023-02-12T22:38:47.660Z,102681.65
2023-02-12T22:42:17.540Z,102677.18
2023-02-12T22:45:46.001Z,102671.69
2023-02-12T22:49:13.606Z,102673.33
2023-02-12T22:52:43.746Z,102673.81
2023-02-12T22:56:11.889Z,102674.80
2023-02-12T22:59:39.346Z,102675.95
2023-02-12T23:03:07.157Z,102674.96
2023-02-12T23:06:44.012Z,102674.02
2023-02-12T23:10:12.777Z,102678.21
2023-02-12T23:13:42.947Z,102677.67
2023-02-12T23:17:10.360Z,102680.86
2023-02-12T23:20:37.643Z,102679.71
2023-02-12T23:24:04.993Z,102678.84
2023-02-12T23:27:32.339Z,102677.75
2023-02-12T23:31:00.504Z,102673.17
2023-02-12T23:34:28.173Z,102674.36
2023-02-12T23:37:55.805Z,102670.33
2023-02-12T23:41:23.055Z,102669.41
2023-02-12T23:44:50.394Z,102666.77
2023-02-12T23:48:17.726Z,102661.71
2023-02-12T23:51:46.378Z,102664.79
2023-02-12T23:55:25.373Z,102665.88
2023-02-12T23:59:12.875Z,102662.16
